createdAt,value
2022-09-20T00:01:13.984Z,2.42
2022-09-20T00:06:43.669Z,2.67
2022-09-20T00:09:14.896Z,2.10
2022-09-20T00:11:47.527Z,2.08
2022-09-20T00:14:28.281Z,1.88
2022-09-20T00:17:04.832Z,2.03
2022-09-20T00:19:38.134Z,2.20
2022-09-20T00:22:05.434Z,1.92
2022-09-20T00:24:36.514Z,1.75
2022-09-20T00:27:09.993Z,2.00
2022-09-20T00:32:04.246Z,1.85
2022-09-20T00:35:02.307Z,1.90
2022-09-20T00:37:29.704Z,1.92
2022-09-20T00:39:59.845Z,1.88
2022-09-20T00:42:31.994Z,1.67
2022-09-20T00:47:45.866Z,1.80
2022-09-20T00:50:39.921Z,1.80
2022-09-20T00:56:12.176Z,2.00
2022-09-20T00:58:59.375Z,1.90
2022-09-20T01:01:26.714Z,1.83
2022-09-20T01:03:57.233Z,2.28
2022-09-20T01:06:25.752Z,2.05
2022-09-20T01:09:16.934Z,2.50
2022-09-20T01:11:52.949Z,2.20
2022-09-20T01:15:09.091Z,2.15
2022-09-20T01:17:38.413Z,2.03
2022-09-20T01:20:11.649Z,1.63
2022-09-20T01:22:51.040Z,1.52
2022-09-20T01:25:50.004Z,1.70
2022-09-20T01:28:20.024Z,1.80
2022-09-20T01:30:59.455Z,1.83
2022-09-20T01:36:51.247Z,2.00
2022-09-20T01:39:43.425Z,2.38
2022-09-20T01:42:15.015Z,2.15
2022-09-20T01:45:20.071Z,1.90
2022-09-20T01:48:07.806Z,2.13
2022-09-20T01:54:19.316Z,1.80
2022-09-20T01:57:14.199Z,2.00
2022-09-20T02:00:12.642Z,1.92
2022-09-20T02:02:46.288Z,1.80
2022-09-20T02:05:44.278Z,2.00
2022-09-20T02:08:25.386Z,2.40
2022-09-20T02:11:15.241Z,2.10
2022-09-20T02:13:42.877Z,3.10
2022-09-20T02:16:16.150Z,2.38
2022-09-20T02:19:12.479Z,2.53
2022-09-20T02:21:56.642Z,2.53
2022-09-20T02:24:45.439Z,2.70
2022-09-20T02:27:51.101Z,2.85
2022-09-20T02:30:25.133Z,2.70
2022-09-20T02:33:21.399Z,2.63
2022-09-20T02:35:51.202Z,3.05
2022-09-20T02:38:27.299Z,3.80
2022-09-20T02:41:08.236Z,4.03
2022-09-20T02:44:01.223Z,4.25
2022-09-20T02:46:50.976Z,4.22
2022-09-20T02:49:59.421Z,4.18
2022-09-20T02:52:36.813Z,4.45
2022-09-20T02:55:29.680Z,4.40
2022-09-20T02:58:06.131Z,5.30
2022-09-20T03:03:10.048Z,7.07
2022-09-20T03:05:49.213Z,6.90
2022-09-20T03:08:49.329Z,7.97
2022-09-20T03:11:28.956Z,7.63
2022-09-20T03:14:23.258Z,7.97
2022-09-20T03:17:27.904Z,8.80
2022-09-20T03:20:04.287Z,9.23
2022-09-20T03:23:05.835Z,8.65
2022-09-20T03:25:51.677Z,8.85
2022-09-20T03:28:37.359Z,8.13
2022-09-20T03:31:19.188Z,8.48
2022-09-20T03:33:50.470Z,8.18
2022-09-20T03:36:37.249Z,8.30
2022-09-20T03:39:28.649Z,8.98
2022-09-20T03:42:19.364Z,9.68
2022-09-20T03:44:58.709Z,9.85
2022-09-20T03:47:44.509Z,10.55
2022-09-20T03:50:36.205Z,10.57
2022-09-20T03:53:27.983Z,9.90
2022-09-20T03:56:11.462Z,9.50
2022-09-20T03:59:08.942Z,9.55
2022-09-20T04:01:59.047Z,10.18
2022-09-20T04:04:33.641Z,9.57
2022-09-20T04:07:38.650Z,9.95
2022-09-20T04:10:37.552Z,9.15
2022-09-20T04:13:36.006Z,8.43
2022-09-20T04:16:37.282Z,8.85
2022-09-20T04:19:33.211Z,8.20
2022-09-20T04:22:01.957Z,9.30
2022-09-20T04:24:32.044Z,8.65
2022-09-20T04:27:02.946Z,9.18
2022-09-20T04:29:36.269Z,8.35
2022-09-20T04:32:18.394Z,8.80
2022-09-20T04:35:11.430Z,8.73
2022-09-20T04:37:39.918Z,9.13
2022-09-20T04:40:14.008Z,9.38
2022-09-20T04:42:45.079Z,8.90
2022-09-20T04:45:52.254Z,9.00
2022-09-20T04:48:22.658Z,9.20
2022-09-20T04:51:14.200Z,10.00
2022-09-20T04:54:25.554Z,9.13
2022-09-20T04:57:32.904Z,9.48
2022-09-20T05:00:12.526Z,9.43
2022-09-20T05:03:11.158Z,10.00
2022-09-20T05:05:57.525Z,9.85
2022-09-20T05:08:49.556Z,9.88
2022-09-20T05:11:31.738Z,10.02
2022-09-20T05:14:24.807Z,9.40
2022-09-20T05:16:52.149Z,8.82
2022-09-20T05:19:28.882Z,8.05
2022-09-20T05:22:24.141Z,7.47
2022-09-20T05:25:21.735Z,7.85
2022-09-20T05:27:54.254Z,12.70
2022-09-20T05:30:39.410Z,12.20
2022-09-20T05:33:25.712Z,11.00
2022-09-20T05:36:16.230Z,15.35
2022-09-20T05:38:52.987Z,13.25
2022-09-20T05:41:24.695Z,9.80
2022-09-20T05:43:58.128Z,9.07
2022-09-20T05:46:46.012Z,10.23
2022-09-20T05:49:35.122Z,12.75
2022-09-20T05:52:57.239Z,8.55
2022-09-20T05:56:47.599Z,6.10
2022-09-20T06:00:10.213Z,5.47
2022-09-20T06:03:01.097Z,5.10
2022-09-20T06:05:49.145Z,4.00
2022-09-20T06:08:39.957Z,3.95
2022-09-20T06:11:43.522Z,5.10
2022-09-20T06:14:30.555Z,3.80
2022-09-20T06:18:00.889Z,3.75
2022-09-20T06:20:52.601Z,3.45
2022-09-20T06:23:19.585Z,3.15
2022-09-20T06:26:31.849Z,2.42
2022-09-20T06:29:07.364Z,2.70
2022-09-20T06:31:34.922Z,2.10
2022-09-20T06:34:10.897Z,2.10
2022-09-20T06:37:43.849Z,2.30
2022-09-20T06:42:05.229Z,1.90
2022-09-20T06:44:03.211Z,2.80
2022-09-20T06:46:35.734Z,1.67
2022-09-20T06:49:03.577Z,1.63
2022-09-20T06:51:34.930Z,1.48
2022-09-20T06:54:08.135Z,1.50
2022-09-20T06:56:51.758Z,1.45
2022-09-20T06:59:29.487Z,1.20
2022-09-20T07:02:05.597Z,1.15
2022-09-20T07:04:32.816Z,1.30
2022-09-20T07:07:08.711Z,1.45
2022-09-20T07:09:54.964Z,1.30
2022-09-20T07:12:22.022Z,1.42
2022-09-20T07:14:50.633Z,1.40
2022-09-20T07:17:17.769Z,1.00
2022-09-20T07:19:44.725Z,1.35
2022-09-20T07:22:12.211Z,1.23
2022-09-20T07:24:41.171Z,1.10
2022-09-20T07:27:11.493Z,1.10
2022-09-20T07:29:38.550Z,1.10
2022-09-20T07:32:05.785Z,1.17
2022-09-20T07:34:33.045Z,1.40
2022-09-20T07:37:10.004Z,1.20
2022-09-20T07:39:37.003Z,1.20
2022-09-20T07:42:06.538Z,1.25
2022-09-20T07:44:33.983Z,1.55
2022-09-20T07:47:01.205Z,1.20
2022-09-20T07:49:32.010Z,1.02
2022-09-20T07:51:58.866Z,1.17
2022-09-20T07:54:27.300Z,1.20
2022-09-20T07:56:54.650Z,1.10
2022-09-20T07:59:21.761Z,1.20
2022-09-20T08:01:48.581Z,0.85
2022-09-20T08:04:15.732Z,1.25
2022-09-20T08:06:44.310Z,1.08
2022-09-20T08:09:20.344Z,0.80
2022-09-20T08:11:47.773Z,1.10
2022-09-20T08:14:16.815Z,1.10
2022-09-20T08:16:47.374Z,0.98
2022-09-20T08:19:24.834Z,1.05
2022-09-20T08:21:54.018Z,0.80
2022-09-20T08:24:26.276Z,1.27
2022-09-20T08:26:53.679Z,1.08
2022-09-20T08:29:40.492Z,1.20
2022-09-20T08:32:07.951Z,1.00
2022-09-20T08:34:40.997Z,1.27
2022-09-20T08:37:09.330Z,1.02
2022-09-20T08:42:28.004Z,1.00
2022-09-20T08:44:59.238Z,1.55
2022-09-20T08:47:49.215Z,1.42
2022-09-20T08:50:18.031Z,1.33
2022-09-20T08:52:49.303Z,1.30
2022-09-20T08:55:18.612Z,1.35
2022-09-20T08:57:54.979Z,1.48
2022-09-20T09:00:26.121Z,1.30
2022-09-20T09:02:59.144Z,1.17
2022-09-20T09:05:49.627Z,1.30
2022-09-20T09:08:28.593Z,1.20
2022-09-20T09:10:58.017Z,1.40
2022-09-20T09:14:02.828Z,1.20
2022-09-20T09:16:35.526Z,1.33
2022-09-20T09:22:25.446Z,1.40
2022-09-20T09:25:22.872Z,1.17
2022-09-20T09:27:57.379Z,1.10
2022-09-20T09:30:30.051Z,1.30
2022-09-20T09:33:24.125Z,1.30
2022-09-20T09:35:57.172Z,1.40
2022-09-20T09:38:38.067Z,1.38
2022-09-20T09:41:08.538Z,1.10
2022-09-20T09:43:37.405Z,1.33
2022-09-20T09:46:23.601Z,1.60
2022-09-20T09:49:17.099Z,1.33
2022-09-20T09:54:37.562Z,1.30
2022-09-20T09:57:44.231Z,1.35
2022-09-20T10:00:21.618Z,1.30
2022-09-20T10:03:04.531Z,1.30
2022-09-20T10:05:55.832Z,1.45
2022-09-20T10:08:25.312Z,1.17
2022-09-20T10:11:01.112Z,1.27
2022-09-20T10:13:40.581Z,1.30
2022-09-20T10:16:13.414Z,1.40
2022-09-20T10:18:40.521Z,1.17
2022-09-20T10:21:23.220Z,1.23
2022-09-20T10:24:04.862Z,1.25
2022-09-20T10:26:53.302Z,1.00
2022-09-20T10:29:47.001Z,1.20
2022-09-20T10:32:21.090Z,1.30
2022-09-20T10:38:21.911Z,1.67
2022-09-20T10:41:18.120Z,1.75
2022-09-20T10:44:12.670Z,1.60
2022-09-20T10:46:51.779Z,1.10
2022-09-20T10:49:50.564Z,1.40
2022-09-20T10:52:32.114Z,1.30
2022-09-20T10:55:25.691Z,1.17
2022-09-20T10:58:15.121Z,1.13
2022-09-20T11:00:54.997Z,1.13
2022-09-20T11:03:36.236Z,1.30
2022-09-20T11:06:15.852Z,1.40
2022-09-20T11:08:43.986Z,1.25
2022-09-20T11:11:24.533Z,1.33
2022-09-20T11:14:14.387Z,1.30
2022-09-20T11:17:12.134Z,1.40
2022-09-20T11:19:55.613Z,1.00
2022-09-20T11:22:41.718Z,1.05
2022-09-20T11:25:55.650Z,0.90
2022-09-20T11:28:36.495Z,1.25
2022-09-20T11:31:28.746Z,1.10
2022-09-20T11:34:05.508Z,1.00
2022-09-20T11:40:38.041Z,0.90
2022-09-20T11:43:14.873Z,1.15
2022-09-20T11:45:49.495Z,1.13
2022-09-20T11:53:02.232Z,0.90
2022-09-20T11:59:09.436Z,1.00
2022-09-20T12:01:41.483Z,1.20
2022-09-20T12:07:44.439Z,1.05
2022-09-20T12:10:26.251Z,1.17
2022-09-20T12:13:10.269Z,0.93
2022-09-20T12:15:46.428Z,0.90
2022-09-20T12:18:34.042Z,1.00
2022-09-20T12:21:02.828Z,1.30
2022-09-20T12:23:42.333Z,1.10
2022-09-20T12:26:21.667Z,0.93
2022-09-20T12:28:51.518Z,1.10
2022-09-20T12:31:33.768Z,0.90
2022-09-20T12:34:16.841Z,0.90
2022-09-20T12:40:22.863Z,0.93
2022-09-20T12:43:05.622Z,1.30
2022-09-20T12:45:40.833Z,0.73
2022-09-20T12:48:21.993Z,0.80
2022-09-20T12:51:28.584Z,0.68
2022-09-20T12:54:09.276Z,1.00
2022-09-20T12:56:44.905Z,0.90
2022-09-20T12:59:31.305Z,1.00
2022-09-20T13:03:00.475Z,1.35
2022-09-20T13:06:22.269Z,1.20
2022-09-20T13:09:15.869Z,1.10
2022-09-20T13:11:52.489Z,1.58
2022-09-20T13:14:35.229Z,1.30
2022-09-20T13:17:33.182Z,1.50
2022-09-20T13:22:51.604Z,1.65
2022-09-20T13:25:28.623Z,1.25
2022-09-20T13:28:17.962Z,1.10
2022-09-20T13:31:22.364Z,1.02
2022-09-20T13:35:05.211Z,1.20
2022-09-20T13:37:34.364Z,1.20
2022-09-20T13:40:03.374Z,0.98
2022-09-20T13:42:33.638Z,1.65
2022-09-20T13:45:03.328Z,1.20
2022-09-20T13:47:32.593Z,1.20
2022-09-20T13:50:13.180Z,1.20
2022-09-20T13:52:46.486Z,1.15
2022-09-20T13:55:29.692Z,1.25
2022-09-20T13:57:59.830Z,1.23
2022-09-20T14:00:29.173Z,1.23
2022-09-20T14:02:57.839Z,1.17
2022-09-20T14:05:26.683Z,1.10
2022-09-20T14:07:53.859Z,1.13
2022-09-20T14:10:37.035Z,1.08
2022-09-20T14:13:07.282Z,1.17
2022-09-20T14:15:38.089Z,1.15
2022-09-20T14:18:07.772Z,1.20
2022-09-20T14:20:35.073Z,1.35
2022-09-20T14:23:02.474Z,1.15
2022-09-20T14:25:29.967Z,1.45
2022-09-20T14:28:19.591Z,1.15
2022-09-20T14:30:50.825Z,1.15
2022-09-20T14:33:20.556Z,1.40
2022-09-20T14:35:52.050Z,1.38
2022-09-20T14:38:23.925Z,1.42
2022-09-20T14:40:51.937Z,1.58
2022-09-20T14:43:29.692Z,1.30
2022-09-20T14:45:58.883Z,1.55
2022-09-20T14:48:26.802Z,1.30
2022-09-20T14:51:23.503Z,1.30
2022-09-20T14:54:14.168Z,1.48
2022-09-20T14:56:49.289Z,1.40
2022-09-20T14:59:23.138Z,1.77
2022-09-20T15:02:11.228Z,1.40
2022-09-20T15:04:40.608Z,1.58
2022-09-20T15:07:11.442Z,1.58
2022-09-20T15:09:38.490Z,1.50
2022-09-20T15:12:11.261Z,1.27
2022-09-20T15:14:42.341Z,1.77
2022-09-20T15:20:06.825Z,2.67
2022-09-20T15:22:33.856Z,1.65
2022-09-20T15:25:00.671Z,1.65
2022-09-20T15:27:28.502Z,1.40
2022-09-20T15:29:58.485Z,1.70
2022-09-20T15:32:25.339Z,0.93
2022-09-20T15:34:52.114Z,3.97
2022-09-20T15:37:18.892Z,1.60
2022-09-20T15:39:45.697Z,1.33
2022-09-20T15:42:12.542Z,1.13
2022-09-20T15:44:39.425Z,1.33
2022-09-20T15:47:06.630Z,1.33
2022-09-20T15:49:33.651Z,1.70
2022-09-20T15:52:01.333Z,1.55
2022-09-20T15:54:28.461Z,1.52
2022-09-20T15:56:58.847Z,1.65
2022-09-20T15:59:26.122Z,1.40
2022-09-20T16:01:53.368Z,1.08
2022-09-20T16:04:20.403Z,1.35
2022-09-20T16:06:49.595Z,1.20
2022-09-20T16:09:18.293Z,1.30
2022-09-20T16:11:48.701Z,1.08
2022-09-20T16:14:15.742Z,1.00
2022-09-20T16:16:43.137Z,1.10
2022-09-20T16:19:21.062Z,1.10
2022-09-20T16:21:57.787Z,1.20
2022-09-20T16:24:27.818Z,1.25
2022-09-20T16:26:55.218Z,1.05
2022-09-20T16:29:22.516Z,1.20
2022-09-20T16:31:50.276Z,1.00
2022-09-20T16:34:36.731Z,1.27
2022-09-20T16:37:06.484Z,1.00
2022-09-20T16:39:34.799Z,1.23
2022-09-20T16:42:10.270Z,1.00
2022-09-20T16:44:38.888Z,1.10
2022-09-20T16:47:10.206Z,1.30
2022-09-20T16:49:38.071Z,1.20
2022-09-20T16:52:06.738Z,1.20
2022-09-20T16:54:34.722Z,1.55
2022-09-20T16:57:02.124Z,1.05
2022-09-20T16:59:29.686Z,1.58
2022-09-20T17:01:57.249Z,1.27
2022-09-20T17:04:24.940Z,1.20
2022-09-20T17:07:02.864Z,1.48
2022-09-20T17:09:33.244Z,1.27
2022-09-20T17:12:19.431Z,1.48
2022-09-20T17:14:49.795Z,1.50
2022-09-20T17:17:17.082Z,1.80
2022-09-20T17:19:44.260Z,1.90
2022-09-20T17:22:11.551Z,1.60
2022-09-20T17:24:39.105Z,2.05
2022-09-20T17:27:13.104Z,2.38
2022-09-20T17:29:40.410Z,1.92
2022-09-20T17:32:07.677Z,1.75
2022-09-20T17:34:42.097Z,1.58
2022-09-20T17:37:09.816Z,1.60
2022-09-20T17:40:01.993Z,2.10
2022-09-20T17:42:31.884Z,1.45
2022-09-20T17:45:04.834Z,1.70
2022-09-20T17:47:33.175Z,1.73
2022-09-20T17:50:00.970Z,2.22
2022-09-20T17:52:28.558Z,2.50
2022-09-20T17:54:57.312Z,1.60
2022-09-20T17:57:24.579Z,1.80
2022-09-20T17:59:51.923Z,2.20
2022-09-20T18:02:34.094Z,1.60
2022-09-20T18:05:04.748Z,1.77
2022-09-20T18:07:39.324Z,1.77
2022-09-20T18:10:21.108Z,1.70
2022-09-20T18:12:53.439Z,1.60
2022-09-20T18:15:52.728Z,1.90
2022-09-20T18:18:22.874Z,1.60
2022-09-20T18:20:59.585Z,2.13
2022-09-20T18:23:36.204Z,2.35
2022-09-20T18:26:23.840Z,2.53
2022-09-20T18:28:59.077Z,2.90
2022-09-20T18:31:43.382Z,3.00
2022-09-20T18:34:20.263Z,2.80
2022-09-20T18:36:54.134Z,2.90
2022-09-20T18:39:23.387Z,2.78
2022-09-20T18:41:53.945Z,2.67
2022-09-20T18:44:49.600Z,2.85
2022-09-20T18:47:52.046Z,2.83
2022-09-20T18:50:28.712Z,2.10
2022-09-20T18:53:09.505Z,2.40
2022-09-20T18:55:40.525Z,2.63
2022-09-20T18:58:12.872Z,2.20
2022-09-20T19:01:15.285Z,2.28
2022-09-20T19:04:25.736Z,2.63
2022-09-20T19:07:36.240Z,2.35
2022-09-20T19:13:29.344Z,2.50
2022-09-20T19:16:22.103Z,2.85
2022-09-20T19:19:15.360Z,2.88
2022-09-20T19:22:00.793Z,3.20
2022-09-20T19:25:07.432Z,3.30
2022-09-20T19:27:59.488Z,3.22
2022-09-20T19:30:40.623Z,3.22
2022-09-20T19:33:20.463Z,3.20
2022-09-20T19:36:14.553Z,2.90
2022-09-20T19:39:27.203Z,2.95
2022-09-20T19:42:25.532Z,3.17
2022-09-20T19:45:29.451Z,2.97
2022-09-20T19:48:10.961Z,2.60
2022-09-20T19:50:46.500Z,2.90
2022-09-20T19:53:16.642Z,3.40
2022-09-20T19:55:59.657Z,3.35
2022-09-20T19:58:32.375Z,3.15
2022-09-20T20:04:13.238Z,3.38
2022-09-20T20:07:16.807Z,3.53
2022-09-20T20:09:55.098Z,3.92
2022-09-20T20:15:52.297Z,3.58
2022-09-20T20:18:53.830Z,3.10
2022-09-20T20:24:58.567Z,3.55
2022-09-20T20:27:32.703Z,3.97
2022-09-20T20:30:07.396Z,3.35
2022-09-20T20:32:40.760Z,3.25
2022-09-20T20:35:13.209Z,3.20
2022-09-20T20:37:41.419Z,3.17
2022-09-20T20:40:15.433Z,3.60
2022-09-20T20:42:46.994Z,3.33
2022-09-20T20:45:16.460Z,2.97
2022-09-20T20:47:57.101Z,3.60
2022-09-20T20:50:30.731Z,4.90
2022-09-20T20:53:32.481Z,6.90
2022-09-20T20:56:26.240Z,4.57
2022-09-20T20:58:53.822Z,4.65
2022-09-20T21:01:27.714Z,3.67
2022-09-20T21:03:59.254Z,3.45
2022-09-20T21:06:31.975Z,3.20
2022-09-20T21:09:00.414Z,3.55
2022-09-20T21:11:37.212Z,3.10
2022-09-20T21:14:07.768Z,3.78
2022-09-20T21:16:36.985Z,3.20
2022-09-20T21:19:05.705Z,3.50
2022-09-20T21:21:39.491Z,3.63
2022-09-20T21:24:11.647Z,3.70
2022-09-20T21:26:39.896Z,4.95
2022-09-20T21:29:12.733Z,7.05
2022-09-20T21:31:41.430Z,6.25
2022-09-20T21:34:09.976Z,5.30
2022-09-20T21:36:38.938Z,5.60
2022-09-20T21:39:09.479Z,5.80
2022-09-20T21:41:38.798Z,5.75
2022-09-20T21:44:13.061Z,5.57
2022-09-20T21:46:42.405Z,5.28
2022-09-20T21:49:11.572Z,5.38
2022-09-20T21:51:42.949Z,4.63
2022-09-20T21:54:10.957Z,4.57
2022-09-20T21:56:40.425Z,4.55
2022-09-20T21:59:08.008Z,4.45
2022-09-20T22:02:02.438Z,4.90
2022-09-20T22:04:30.253Z,4.57
2022-09-20T22:06:57.135Z,4.70
2022-09-20T22:09:25.122Z,4.75
2022-09-20T22:11:52.400Z,4.50
2022-09-20T22:14:22.271Z,4.38
2022-09-20T22:16:51.450Z,4.55
2022-09-20T22:19:19.021Z,4.32
2022-09-20T22:21:48.186Z,4.18
2022-09-20T22:24:16.479Z,4.38
2022-09-20T22:26:48.155Z,4.45
2022-09-20T22:29:15.939Z,4.03
2022-09-20T22:31:46.892Z,3.67
2022-09-20T22:34:19.528Z,3.67
2022-09-20T22:36:47.210Z,4.22
2022-09-20T22:39:16.443Z,4.15
2022-09-20T22:41:48.122Z,4.68
2022-09-20T22:44:16.081Z,4.68
2022-09-20T22:46:43.076Z,4.45
2022-09-20T22:49:13.467Z,5.32
2022-09-20T22:51:40.480Z,5.00
2022-09-20T22:54:10.519Z,4.82
2022-09-20T22:56:43.674Z,5.18
2022-09-20T22:59:28.722Z,5.10
2022-09-20T23:01:55.895Z,5.07
2022-09-20T23:04:23.515Z,5.20
2022-09-20T23:06:55.382Z,4.78
2022-09-20T23:09:25.204Z,5.15
2022-09-20T23:11:52.470Z,5.90
2022-09-20T23:14:21.252Z,5.30
2022-09-20T23:16:48.978Z,5.90
2022-09-20T23:19:15.986Z,6.18
2022-09-20T23:21:43.705Z,5.70
2022-09-20T23:24:13.122Z,6.22
2022-09-20T23:26:41.279Z,6.05
2022-09-20T23:29:13.782Z,5.43
2022-09-20T23:31:45.865Z,6.05
2022-09-20T23:34:14.858Z,6.13
2022-09-20T23:36:44.162Z,5.85
2022-09-20T23:39:11.984Z,5.93
2022-09-20T23:41:41.266Z,6.10
2022-09-20T23:44:09.863Z,5.68
2022-09-20T23:46:37.701Z,5.43
2022-09-20T23:49:06.744Z,6.05
2022-09-20T23:51:37.429Z,6.15
2022-09-20T23:54:13.700Z,5.85
2022-09-20T23:56:41.734Z,5.63
2022-09-20T23:59:08.772Z,5.68
